createdAt,value
2022-08-01T00:00:21.183Z,84.90
2022-08-01T00:04:22.865Z,85.00
2022-08-01T00:08:24.615Z,85.00
2022-08-01T00:12:26.308Z,85.10
2022-08-01T00:16:28.071Z,85.33
2022-08-01T00:20:29.664Z,85.83
2022-08-01T00:24:31.558Z,86.03
2022-08-01T00:28:33.192Z,86.03
2022-08-01T00:32:34.829Z,86.43
2022-08-01T00:36:36.413Z,87.12
2022-08-01T00:40:38.167Z,87.92
2022-08-01T00:44:40.458Z,88.55
2022-08-01T00:48:42.218Z,89.15
2022-08-01T00:52:51.382Z,89.59
2022-08-01T00:56:54.234Z,89.69
2022-08-01T01:00:55.844Z,90.09
2022-08-01T01:04:58.472Z,90.68
2022-08-01T01:09:19.801Z,90.88
2022-08-01T01:13:27.462Z,91.12
2022-08-01T01:17:51.381Z,91.82
2022-08-01T01:22:09.700Z,91.92
2022-08-01T01:26:30.232Z,91.82
2022-08-01T01:30:34.050Z,92.02
2022-08-01T01:34:38.626Z,92.41
2022-08-01T01:38:45.111Z,92.96
2022-08-01T01:42:47.597Z,93.45
2022-08-01T01:46:52.962Z,93.55
2022-08-01T01:50:55.455Z,93.70
2022-08-01T01:54:58.276Z,93.90
2022-08-01T01:59:03.623Z,94.09
2022-08-01T02:03:08.537Z,94.20
2022-08-01T02:07:13.475Z,94.09
2022-08-01T02:11:21.729Z,94.20
2022-08-01T02:15:24.294Z,94.39
2022-08-01T02:19:26.226Z,94.89
2022-08-01T02:23:33.888Z,95.09
2022-08-01T02:27:42.766Z,95.03
2022-08-01T02:31:47.917Z,95.14
2022-08-01T02:36:29.097Z,95.23
2022-08-01T02:40:18.209Z,95.14
2022-08-01T02:44:26.138Z,95.29
2022-08-01T02:48:29.301Z,95.29
2022-08-01T02:52:33.742Z,95.29
2022-08-01T02:56:36.999Z,95.49
2022-08-01T03:00:41.446Z,95.68
2022-08-01T03:04:44.762Z,96.33
2022-08-01T03:08:49.643Z,96.43
2022-08-01T03:12:52.184Z,96.43
2022-08-01T03:16:55.994Z,97.22
2022-08-01T03:21:00.036Z,97.82
2022-08-01T03:25:04.109Z,97.77
2022-08-01T03:29:10.777Z,97.67
2022-08-01T03:33:14.415Z,97.67
2022-08-01T03:37:25.253Z,97.67
2022-08-01T03:41:32.357Z,97.57
2022-08-01T03:45:42.233Z,97.67
2022-08-01T03:49:45.875Z,97.77
2022-08-01T03:53:48.844Z,97.87
2022-08-01T03:57:51.601Z,98.17
2022-08-01T04:01:53.925Z,98.32
2022-08-01T04:05:55.731Z,98.21
2022-08-01T04:09:57.779Z,98.41
2022-08-01T04:13:59.405Z,98.91
2022-08-01T04:18:01.026Z,98.91
2022-08-01T04:22:03.978Z,99.11
2022-08-01T04:26:07.690Z,99.21
2022-08-01T04:30:10.461Z,99.26
2022-08-01T04:34:25.357Z,99.11
2022-08-01T04:38:28.784Z,99.11
2022-08-01T04:42:33.532Z,99.21
2022-08-01T04:46:37.780Z,99.31
2022-08-01T04:50:39.480Z,99.31
2022-08-01T04:54:41.315Z,99.01
2022-08-01T04:58:43.978Z,99.11
2022-08-01T05:02:45.910Z,99.36
2022-08-01T05:06:47.584Z,99.51
2022-08-01T05:10:49.223Z,99.51
2022-08-01T05:14:50.908Z,99.26
2022-08-01T05:18:53.070Z,99.16
2022-08-01T05:22:54.819Z,99.16
2022-08-01T05:26:57.205Z,99.56
2022-08-01T05:30:58.877Z,99.86
2022-08-01T05:35:00.857Z,99.99
2022-08-01T05:39:02.452Z,99.99
2022-08-01T05:43:04.065Z,99.99
2022-08-01T05:47:05.868Z,99.99
2022-08-01T05:51:07.425Z,99.99
2022-08-01T05:55:10.241Z,99.99
2022-08-01T05:59:11.818Z,99.99
2022-08-01T06:03:13.793Z,99.99
2022-08-01T06:07:15.402Z,99.99
2022-08-01T06:11:17.184Z,99.99
2022-08-01T06:15:18.990Z,99.99
2022-08-01T06:19:20.651Z,99.81
2022-08-01T06:23:32.334Z,99.46
2022-08-01T06:27:37.601Z,99.61
2022-08-01T06:31:39.198Z,99.99
2022-08-01T06:35:40.880Z,99.99
2022-08-01T06:39:43.150Z,99.71
2022-08-01T06:43:44.723Z,99.66
2022-08-01T06:47:48.830Z,99.07
2022-08-01T06:51:53.495Z,99.16
2022-08-01T06:55:55.045Z,98.87
2022-08-01T06:59:56.993Z,98.82
2022-08-01T07:03:58.729Z,98.52
2022-08-01T07:08:00.350Z,98.13
2022-08-01T07:12:01.919Z,98.03
2022-08-01T07:16:03.668Z,97.63
2022-08-01T07:20:06.888Z,98.03
2022-08-01T07:24:15.394Z,97.28
2022-08-01T07:28:17.099Z,97.08
2022-08-01T07:32:18.708Z,96.74
2022-08-01T07:36:20.385Z,96.94
2022-08-01T07:40:22.122Z,96.64
2022-08-01T07:44:23.723Z,97.04
2022-08-01T07:48:25.819Z,96.64
2022-08-01T07:52:28.009Z,96.44
2022-08-01T07:56:29.702Z,95.90
2022-08-01T08:00:31.341Z,95.70
2022-08-01T08:04:32.996Z,95.26
2022-08-01T08:08:35.625Z,94.96
2022-08-01T08:12:37.521Z,95.36
2022-08-01T08:16:39.383Z,95.60
2022-08-01T08:20:41.399Z,95.16
2022-08-01T08:24:45.612Z,94.66
2022-08-01T08:28:48.285Z,94.02
2022-08-01T08:32:49.941Z,93.68
2022-08-01T08:36:52.298Z,93.08
2022-08-01T08:40:54.312Z,92.44
2022-08-01T08:44:56.200Z,92.94
2022-08-01T08:48:58.112Z,92.84
2022-08-01T08:53:02.266Z,92.44
2022-08-01T08:57:08.505Z,90.81
2022-08-01T09:01:11.070Z,91.11
2022-08-01T09:05:17.566Z,91.56
2022-08-01T09:09:21.240Z,90.03
2022-08-01T09:13:23.042Z,89.84
2022-08-01T09:17:24.638Z,89.11
2022-08-01T09:21:26.762Z,87.12
2022-08-01T09:25:36.746Z,86.88
2022-08-01T09:29:49.887Z,86.25
2022-08-01T09:34:04.909Z,86.84
2022-08-01T09:38:15.200Z,86.84
2022-08-01T09:42:28.841Z,87.63
2022-08-01T09:46:31.203Z,88.13
2022-08-01T09:50:41.177Z,87.43
2022-08-01T09:54:44.403Z,87.54
2022-08-01T09:58:58.320Z,87.19
2022-08-01T10:03:19.851Z,87.00
2022-08-01T10:07:27.922Z,86.76
2022-08-01T10:11:45.470Z,86.36
2022-08-01T10:15:47.245Z,85.73
2022-08-01T10:19:51.433Z,85.53
2022-08-01T10:23:59.897Z,84.37
2022-08-01T10:28:18.127Z,83.68
2022-08-01T10:32:23.573Z,83.97
2022-08-01T10:36:27.333Z,83.78
2022-08-01T10:40:31.905Z,84.11
2022-08-01T10:44:34.367Z,83.81
2022-08-01T10:49:16.306Z,84.21
2022-08-01T10:53:30.828Z,83.68
2022-08-01T10:57:52.441Z,83.38
2022-08-01T11:01:59.468Z,83.64
2022-08-01T11:06:01.915Z,83.68
2022-08-01T11:10:14.672Z,83.18
2022-08-01T11:14:16.761Z,83.24
2022-08-01T11:18:53.407Z,82.51
2022-08-01T11:23:07.136Z,82.37
2022-08-01T11:27:24.044Z,81.35
2022-08-01T11:31:27.367Z,80.99
2022-08-01T11:35:29.265Z,80.76
2022-08-01T11:39:35.452Z,80.66
2022-08-01T11:44:06.516Z,80.66
2022-08-01T11:48:19.478Z,79.93
2022-08-01T11:52:33.381Z,79.30
2022-08-01T11:56:40.222Z,79.60
2022-08-01T12:00:55.524Z,79.76
2022-08-01T12:05:01.992Z,78.74
2022-08-01T12:09:24.467Z,77.52
2022-08-01T12:13:26.192Z,76.56
2022-08-01T12:17:33.388Z,76.14
2022-08-01T12:21:34.999Z,76.68
2022-08-01T12:25:38.057Z,76.53
2022-08-01T12:29:42.257Z,76.39
2022-08-01T12:33:43.995Z,76.88
2022-08-01T12:37:50.047Z,77.84
2022-08-01T12:41:51.767Z,77.87
2022-08-01T12:45:54.493Z,77.68
2022-08-01T12:49:59.340Z,77.42
2022-08-01T12:54:00.984Z,77.39
2022-08-01T12:58:11.486Z,77.81
2022-08-01T13:02:17.337Z,78.50
2022-08-01T13:06:18.995Z,78.25
2022-08-01T13:10:47.577Z,78.34
2022-08-01T13:14:49.248Z,78.11
2022-08-01T13:18:53.015Z,78.41
2022-08-01T13:22:55.420Z,78.05
2022-08-01T13:27:00.877Z,76.93
2022-08-01T13:31:07.999Z,77.13
2022-08-01T13:35:11.227Z,75.72
2022-08-01T13:39:31.164Z,76.44
2022-08-01T13:43:58.422Z,76.74
2022-08-01T13:48:12.297Z,75.72
2022-08-01T13:52:17.655Z,75.92
2022-08-01T13:56:20.869Z,76.21
2022-08-01T14:00:22.558Z,75.43
2022-08-01T14:04:24.318Z,75.43
2022-08-01T14:08:26.094Z,74.70
2022-08-01T14:12:27.715Z,73.62
2022-08-01T14:16:29.352Z,73.88
2022-08-01T14:20:30.995Z,73.59
2022-08-01T14:24:32.667Z,73.26
2022-08-01T14:28:35.156Z,73.19
2022-08-01T14:32:36.880Z,73.72
2022-08-01T14:36:38.975Z,73.92
2022-08-01T14:40:41.591Z,73.27
2022-08-01T14:44:44.875Z,72.16
2022-08-01T14:48:51.718Z,72.80
2022-08-01T14:52:54.023Z,72.80
2022-08-01T14:56:55.610Z,73.33
2022-08-01T15:00:59.250Z,73.99
2022-08-01T15:05:01.124Z,73.99
2022-08-01T15:09:08.256Z,74.22
2022-08-01T15:13:11.165Z,74.62
2022-08-01T15:17:12.764Z,75.04
2022-08-01T15:21:24.867Z,75.14
2022-08-01T15:25:40.824Z,75.04
2022-08-01T15:29:43.799Z,75.30
2022-08-01T15:33:45.430Z,75.26
2022-08-01T15:37:47.042Z,75.20
2022-08-01T15:41:48.734Z,75.50
2022-08-01T15:45:50.350Z,76.22
2022-08-01T15:49:52.714Z,76.12
2022-08-01T15:53:54.424Z,76.46
2022-08-01T15:57:56.032Z,76.59
2022-08-01T16:01:57.691Z,76.65
2022-08-01T16:06:00.253Z,76.98
2022-08-01T16:10:01.870Z,77.67
2022-08-01T16:14:03.588Z,78.06
2022-08-01T16:18:06.413Z,78.00
2022-08-01T16:22:08.488Z,78.50
2022-08-01T16:26:11.856Z,78.11
2022-08-01T16:30:30.967Z,77.81
2022-08-01T16:34:33.895Z,78.00
2022-08-01T16:38:37.303Z,78.40
2022-08-01T16:42:38.878Z,78.74
2022-08-01T16:46:40.485Z,78.57
2022-08-01T16:50:42.844Z,79.06
2022-08-01T16:54:44.751Z,79.06
2022-08-01T16:58:46.375Z,79.10
2022-08-01T17:02:48.112Z,79.10
2022-08-01T17:06:52.217Z,79.50
2022-08-01T17:10:53.922Z,79.60
2022-08-01T17:14:55.773Z,79.50
2022-08-01T17:18:57.507Z,79.30
2022-08-01T17:22:59.146Z,80.19
2022-08-01T17:27:02.323Z,80.22
2022-08-01T17:31:04.015Z,80.82
2022-08-01T17:35:12.392Z,81.02
2022-08-01T17:39:14.165Z,81.15
2022-08-01T17:43:15.735Z,81.15
2022-08-01T17:47:40.899Z,80.96
2022-08-01T17:51:38.980Z,81.25
2022-08-01T17:55:53.285Z,81.74
2022-08-01T17:59:59.040Z,82.28
2022-08-01T18:04:00.687Z,82.87
2022-08-01T18:08:02.881Z,83.26
2022-08-01T18:12:04.902Z,83.80
2022-08-01T18:16:12.852Z,83.80
2022-08-01T18:20:14.728Z,83.90
2022-08-01T18:24:17.429Z,84.03
2022-08-01T18:28:25.770Z,84.23
2022-08-01T18:32:32.620Z,84.83
2022-08-01T18:36:34.495Z,85.12
2022-08-01T18:40:36.226Z,85.61
2022-08-01T18:44:37.894Z,86.01
2022-08-01T18:48:39.509Z,86.55
2022-08-01T18:52:42.589Z,87.24
2022-08-01T18:56:45.178Z,87.58
2022-08-01T19:00:46.880Z,87.77
2022-08-01T19:04:48.511Z,88.41
2022-08-01T19:08:52.112Z,88.90
2022-08-01T19:12:53.721Z,89.44
2022-08-01T19:16:56.429Z,89.64
2022-08-01T19:20:58.064Z,89.84
2022-08-01T19:24:59.672Z,89.84
2022-08-01T19:29:05.393Z,90.03
2022-08-01T19:33:07.146Z,89.84
2022-08-01T19:37:09.313Z,90.53
2022-08-01T19:41:13.751Z,90.33
2022-08-01T19:45:15.506Z,90.08
2022-08-01T19:49:19.481Z,90.28
2022-08-01T19:53:24.351Z,90.87
2022-08-01T19:57:28.521Z,91.36
2022-08-01T20:01:49.044Z,92.06
2022-08-01T20:05:51.230Z,92.30
2022-08-01T20:09:54.296Z,92.50
2022-08-01T20:13:57.215Z,92.40
2022-08-01T20:17:59.348Z,92.44
2022-08-01T20:22:05.868Z,92.74
2022-08-01T20:26:09.091Z,93.24
2022-08-01T20:30:11.791Z,93.14
2022-08-01T20:34:22.807Z,93.14
2022-08-01T20:38:27.678Z,93.33
2022-08-01T20:42:31.357Z,93.44
2022-08-01T20:46:33.694Z,93.58
2022-08-01T20:50:55.651Z,93.98
2022-08-01T20:54:57.260Z,94.47
2022-08-01T20:59:39.906Z,94.87
2022-08-01T21:04:06.030Z,94.82
2022-08-01T21:08:16.217Z,95.21
2022-08-01T21:12:27.995Z,95.41
2022-08-01T21:16:33.741Z,95.81
2022-08-01T21:20:52.746Z,96.15
2022-08-01T21:24:59.074Z,96.25
2022-08-01T21:29:04.981Z,96.25
2022-08-01T21:33:10.794Z,96.45
2022-08-01T21:37:16.081Z,96.79
2022-08-01T21:41:18.648Z,96.79
2022-08-01T21:45:57.905Z,96.79
2022-08-01T21:50:02.542Z,96.99
2022-08-01T21:54:25.363Z,97.24
2022-08-01T21:58:51.782Z,97.24
2022-08-01T22:03:17.972Z,97.33
2022-08-01T22:07:22.181Z,97.53
2022-08-01T22:11:28.120Z,97.48
2022-08-01T22:15:45.187Z,97.58
2022-08-01T22:19:50.652Z,97.58
2022-08-01T22:23:55.171Z,97.68
2022-08-01T22:28:08.060Z,97.38
2022-08-01T22:32:14.633Z,97.48
2022-08-01T22:36:17.159Z,97.38
2022-08-01T22:40:18.779Z,97.53
2022-08-01T22:44:30.128Z,97.83
2022-08-01T22:48:34.751Z,98.13
2022-08-01T22:52:48.454Z,98.22
2022-08-01T22:56:55.631Z,98.13
2022-08-01T23:01:01.381Z,98.13
2022-08-01T23:05:06.193Z,98.13
2022-08-01T23:09:09.464Z,98.22
2022-08-01T23:13:11.800Z,98.32
2022-08-01T23:17:26.725Z,98.57
2022-08-01T23:21:32.086Z,98.27
2022-08-01T23:25:34.204Z,98.07
2022-08-01T23:29:35.815Z,98.27
2022-08-01T23:33:37.558Z,98.42
2022-08-01T23:37:39.277Z,99.02
2022-08-01T23:41:56.138Z,99.26
2022-08-01T23:46:04.143Z,99.66
2022-08-01T23:50:07.827Z,99.99
2022-08-01T23:54:09.579Z,99.99
2022-08-01T23:58:12.497Z,99.99
